Time;durP1;ratioP1;P1;durP2;ratioP2;P2;SDS_P1;SDS_P2;PMS_P1;PMS_P2;Temp;Humidity;BMP_temperature;BMP_pressure;BME280_temperature;BME280_humidity;BME280_pressure;Samples;Min_cycle;Max_cycle;Signal;HPM_P1;HPM_P2
2021/09/10 00:01:35;;;;;;;0.90;0.40;;;18.70;94.50;;;;;;4915776;29;20434;-69
2021/09/10 00:04:04;;;;;;;0.90;0.40;;;18.70;93.90;;;;;;4915567;29;20911;-69
2021/09/10 00:06:32;;;;;;;0.90;0.40;;;18.70;93.90;;;;;;4915599;29;20432;-67
2021/09/10 00:09:00;;;;;;;0.90;0.40;;;18.70;94.30;;;;;;4915951;29;20412;-66
2021/09/10 00:11:28;;;;;;;0.90;0.40;;;18.70;94.30;;;;;;4916186;29;20418;-69
2021/09/10 00:13:56;;;;;;;0.90;0.40;;;18.70;94.30;;;;;;4916511;29;20460;-68
2021/09/10 00:16:26;;;;;;;0.90;0.40;;;18.80;93.90;;;;;;4916616;29;20404;-69
2021/09/10 00:18:54;;;;;;;0.90;0.40;;;18.70;94.70;;;;;;4917192;29;20429;-68
2021/09/10 00:21:22;;;;;;;0.90;0.40;;;18.70;94.30;;;;;;4916844;29;20441;-67
2021/09/10 00:23:50;;;;;;;0.90;0.40;;;18.70;95.00;;;;;;4917178;29;20419;-69
2021/09/10 00:26:19;;;;;;;0.90;0.40;;;18.60;95.90;;;;;;4916097;29;20487;-67
2021/09/10 00:28:47;;;;;;;0.90;0.40;;;18.60;96.30;;;;;;4916859;29;20508;-66
2021/09/10 00:31:15;;;;;;;0.90;0.40;;;18.60;96.60;;;;;;4916939;29;20405;-70
2021/09/10 00:33:45;;;;;;;0.90;0.40;;;18.50;96.80;;;;;;4917805;29;20404;-69
2021/09/10 00:36:13;;;;;;;0.90;0.40;;;18.50;97.10;;;;;;4915846;29;20404;-68
2021/09/10 00:38:41;;;;;;;0.90;0.40;;;18.50;97.60;;;;;;4915134;29;20408;-68
2021/09/10 00:41:09;;;;;;;0.90;0.40;;;18.50;97.50;;;;;;4915338;29;20911;-69
2021/09/10 00:43:40;;;;;;;0.90;0.40;;;18.40;98.30;;;;;;4915174;29;20441;-68
2021/09/10 00:46:08;;;;;;;0.90;0.40;;;18.40;99.10;;;;;;4915533;29;20448;-69
2021/09/10 00:48:38;;;;;;;0.90;0.40;;;18.40;99.20;;;;;;4898392;29;20762;-69
2021/09/10 00:51:08;;;;;;;0.90;0.40;;;18.40;99.90;;;;;;4915464;29;20408;-69
2021/09/10 00:53:37;;;;;;;0.90;0.40;;;18.40;99.90;;;;;;4915314;29;20449;-69
2021/09/10 00:56:05;;;;;;;0.90;0.40;;;18.40;99.90;;;;;;4915410;29;20946;-70
2021/09/10 00:58:33;;;;;;;0.90;0.40;;;18.40;99.90;;;;;;4915197;29;20412;-68
2021/09/10 01:01:02;;;;;;;0.90;0.40;;;18.30;99.90;;;;;;4914907;29;20429;-68
2021/09/10 01:03:30;;;;;;;0.90;0.50;;;18.30;99.90;;;;;;4897751;29;20819;-67
2021/09/10 01:06:00;;;;;;;0.90;0.50;;;18.30;99.90;;;;;;4897617;29;20525;-68
2021/09/10 01:08:30;;;;;;;0.90;0.40;;;18.20;99.90;;;;;;4914852;29;20396;-68
2021/09/10 01:11:00;;;;;;;0.90;0.40;;;18.10;99.90;;;;;;4915738;29;20427;-68
2021/09/10 01:13:29;;;;;;;0.90;0.40;;;18.10;99.90;;;;;;4921084;29;20460;-70
2021/09/10 01:15:58;;;;;;;0.90;0.40;;;18.10;99.90;;;;;;4921371;29;20405;-69
2021/09/10 01:18:26;;;;;;;0.90;0.40;;;18.10;99.90;;;;;;4921078;29;20459;-68
2021/09/10 01:20:54;;;;;;;0.90;0.40;;;18.10;99.90;;;;;;4921662;29;20408;-67
2021/09/10 01:23:22;;;;;;;0.90;0.40;;;18.20;99.90;;;;;;4923298;29;20427;-71
2021/09/10 01:25:52;;;;;;;0.90;0.50;;;18.20;99.90;;;;;;4922102;29;20452;-68
2021/09/10 01:28:20;;;;;;;0.90;0.40;;;18.20;99.90;;;;;;4922144;29;20404;-66
2021/09/10 01:30:48;;;;;;;0.90;0.40;;;18.20;99.90;;;;;;4921391;29;20433;-67
2021/09/10 01:33:16;;;;;;;0.90;0.40;;;18.10;99.90;;;;;;4921338;29;20915;-67
2021/09/10 01:35:44;;;;;;;0.90;0.40;;;18.10;99.90;;;;;;4921368;29;20408;-68
2021/09/10 01:38:13;;;;;;;0.90;0.40;;;18.10;99.90;;;;;;4921804;29;20576;-69
2021/09/10 01:40:41;;;;;;;0.90;0.50;;;18.10;99.90;;;;;;4921291;29;20434;-69
2021/09/10 01:43:12;;;;;;;0.90;0.40;;;18.10;99.90;;;;;;4921290;29;20445;-70
2021/09/10 01:45:40;;;;;;;0.90;0.40;;;18.10;99.90;;;;;;4921275;29;20436;-67
2021/09/10 01:48:08;;;;;;;0.90;0.40;;;18.00;99.90;;;;;;4921636;29;20403;-69
2021/09/10 01:50:37;;;;;;;0.90;0.40;;;17.90;99.90;;;;;;4921706;29;20437;-68
2021/09/10 01:53:05;;;;;;;0.90;0.40;;;18.00;99.90;;;;;;4920953;29;20420;-71
2021/09/10 01:55:35;;;;;;;0.90;0.40;;;17.90;99.90;;;;;;4920892;29;20400;-68
2021/09/10 01:58:03;;;;;;;0.90;0.40;;;17.90;99.90;;;;;;4921621;29;20895;-68
2021/09/10 02:00:32;;;;;;;0.90;0.40;;;17.90;99.90;;;;;;4921379;29;20798;-69
2021/09/10 02:03:01;;;;;;;0.90;0.40;;;17.90;99.90;;;;;;4921581;29;20428;-68
2021/09/10 02:05:30;;;;;;;0.90;0.40;;;17.90;99.90;;;;;;4921481;29;20472;-69
2021/09/10 02:07:58;;;;;;;0.90;0.40;;;17.90;99.90;;;;;;4921883;29;20439;-70
2021/09/10 02:10:26;;;;;;;0.90;0.40;;;17.90;99.90;;;;;;4921583;29;20945;-69
2021/09/10 02:12:54;;;;;;;0.90;0.40;;;17.90;99.90;;;;;;4904118;29;20487;-70
2021/09/10 02:15:24;;;;;;;0.90;0.40;;;17.80;99.90;;;;;;4921049;29;20399;-69
2021/09/10 02:17:53;;;;;;;0.90;0.40;;;17.90;99.90;;;;;;4922281;29;20395;-69
2021/09/10 02:20:22;;;;;;;0.90;0.40;;;17.90;99.90;;;;;;4922290;29;20407;-68
2021/09/10 02:22:50;;;;;;;0.90;0.40;;;17.90;99.90;;;;;;4921522;29;20441;-70
2021/09/10 02:25:18;;;;;;;0.90;0.40;;;17.90;99.90;;;;;;4921211;29;20433;-69
2021/09/10 02:27:46;;;;;;;0.90;0.40;;;17.90;99.90;;;;;;4919846;29;20444;-70
2021/09/10 02:30:14;;;;;;;0.90;0.40;;;17.90;99.90;;;;;;4919797;29;20404;-69
2021/09/10 02:32:42;;;;;;;0.90;0.40;;;17.90;99.90;;;;;;4919425;29;20424;-69
2021/09/10 02:35:12;;;;;;;0.90;0.40;;;17.80;99.90;;;;;;4919882;29;20405;-69
2021/09/10 02:37:40;;;;;;;0.90;0.40;;;17.90;99.90;;;;;;4919806;29;20412;-68
2021/09/10 02:40:09;;;;;;;0.90;0.40;;;17.90;99.90;;;;;;4920656;29;20947;-68
2021/09/10 02:42:38;;;;;;;0.90;0.40;;;17.90;99.90;;;;;;4920368;29;20432;-68
2021/09/10 02:45:11;;;;;;;0.90;0.40;;;17.80;99.90;;;;;;4918239;29;20436;-68
2021/09/10 02:47:39;;;;;;;0.90;0.50;;;17.80;99.90;;;;;;4918551;29;20473;-70
2021/09/10 02:50:08;;;;;;;0.90;0.40;;;17.70;99.90;;;;;;4918435;29;20404;-70
2021/09/10 02:52:38;;;;;;;0.90;0.40;;;17.70;99.90;;;;;;4919571;29;20446;-70
2021/09/10 02:55:08;;;;;;;0.90;0.40;;;17.60;99.90;;;;;;4919430;29;20413;-70
2021/09/10 02:57:37;;;;;;;0.90;0.40;;;17.60;99.90;;;;;;4902848;29;20482;-70
2021/09/10 03:00:07;;;;;;;0.90;0.40;;;17.50;99.90;;;;;;4918360;29;20429;-68
2021/09/10 03:02:36;;;;;;;0.90;0.40;;;17.50;99.90;;;;;;4917496;29;20798;-67
2021/09/10 03:05:07;;;;;;;0.90;0.40;;;17.50;99.90;;;;;;4919001;29;20845;-69
2021/09/10 03:07:35;;;;;;;0.90;0.40;;;17.60;99.90;;;;;;4919054;29;20505;-69
2021/09/10 03:10:07;;;;;;;0.90;0.50;;;17.60;99.90;;;;;;4942069;23;20486;-77
2021/09/10 03:12:36;;;;;;;0.90;0.40;;;17.50;99.90;;;;;;4941679;29;20446;-77
2021/09/10 03:15:05;;;;;;;0.90;0.40;;;17.50;99.90;;;;;;4940512;29;20419;-78
2021/09/10 03:17:33;;;;;;;0.90;0.40;;;17.50;99.90;;;;;;4923250;29;20474;-78
2021/09/10 03:20:01;;;;;;;0.90;0.40;;;17.50;99.90;;;;;;4931888;29;20449;-78
2021/09/10 03:22:29;;;;;;;0.90;0.47;;;17.50;99.90;;;;;;4907393;29;20442;-77
2021/09/10 03:24:57;;;;;;;0.90;0.40;;;17.40;99.90;;;;;;4906741;29;20404;-78
2021/09/10 03:27:27;;;;;;;0.90;0.40;;;17.40;99.90;;;;;;4923980;29;20461;-78
2021/09/10 03:29:55;;;;;;;0.90;0.40;;;17.40;99.90;;;;;;4923473;29;20476;-77
2021/09/10 03:32:23;;;;;;;0.90;0.40;;;17.40;99.90;;;;;;4923752;29;20436;-78
2021/09/10 03:34:52;;;;;;;0.90;0.60;;;17.40;99.90;;;;;;4905941;29;20436;-78
2021/09/10 03:37:20;;;;;;;0.90;0.50;;;17.30;99.90;;;;;;4906508;29;20473;-78
2021/09/10 03:39:48;;;;;;;0.90;0.50;;;17.30;99.90;;;;;;4906954;29;20560;-79
2021/09/10 03:42:16;;;;;;;0.90;0.50;;;17.40;99.90;;;;;;4924914;29;20833;-79
2021/09/10 03:44:45;;;;;;;0.90;0.50;;;17.40;99.90;;;;;;4907470;29;20424;-78
2021/09/10 03:47:13;;;;;;;0.90;0.40;;;17.30;99.90;;;;;;4925301;29;20520;-79
2021/09/10 03:49:42;;;;;;;0.90;0.50;;;17.20;99.90;;;;;;4921865;29;20446;-77
2021/09/10 03:52:10;;;;;;;0.90;0.40;;;17.20;99.90;;;;;;4922740;29;20750;-78
2021/09/10 03:54:38;;;;;;;0.90;0.40;;;17.10;99.90;;;;;;4919038;29;20414;-77
2021/09/10 03:57:07;;;;;;;0.90;0.40;;;17.20;99.90;;;;;;4940250;29;20435;-77
2021/09/10 03:59:35;;;;;;;0.90;0.40;;;17.20;99.90;;;;;;4940726;29;20457;-75
2021/09/10 04:02:05;;;;;;;0.90;0.40;;;17.20;99.90;;;;;;4940806;29;20392;-76
2021/09/10 04:04:34;;;;;;;0.90;0.40;;;17.00;99.90;;;;;;4938928;29;20442;-76
2021/09/10 04:07:03;;;;;;;0.90;0.40;;;17.10;99.90;;;;;;4923061;29;20463;-77
2021/09/10 04:09:33;;;;;;;0.90;0.40;;;17.00;99.90;;;;;;4930508;29;20480;-78
2021/09/10 04:12:01;;;;;;;0.90;0.40;;;17.00;99.90;;;;;;4903142;29;20477;-77
2021/09/10 04:14:29;;;;;;;0.90;0.50;;;17.10;99.90;;;;;;4903386;29;20457;-77
2021/09/10 04:16:57;;;;;;;0.90;0.40;;;17.10;99.90;;;;;;4920282;29;20422;-77
2021/09/10 04:19:27;;;;;;;0.90;0.50;;;17.00;99.90;;;;;;4919693;29;20557;-76
2021/09/10 04:21:55;;;;;;;0.90;0.40;;;16.90;99.90;;;;;;4903614;29;20528;-77
2021/09/10 04:24:24;;;;;;;0.90;0.40;;;16.90;99.90;;;;;;4919650;29;20397;-77
2021/09/10 04:26:53;;;;;;;0.90;0.40;;;17.10;99.90;;;;;;4920215;29;20502;-77
2021/09/10 04:29:21;;;;;;;0.90;0.40;;;17.10;99.90;;;;;;4920228;29;20477;-78
2021/09/10 04:31:49;;;;;;;0.90;0.40;;;17.20;99.90;;;;;;4919910;29;20460;-78
2021/09/10 04:34:17;;;;;;;0.90;0.40;;;17.10;99.90;;;;;;4919787;29;20460;-78
2021/09/10 04:36:46;;;;;;;0.90;0.40;;;17.10;99.90;;;;;;4919912;29;20408;-77
2021/09/10 04:39:15;;;;;;;0.90;0.50;;;17.10;99.90;;;;;;4920408;29;20836;-78
2021/09/10 04:41:43;;;;;;;0.90;0.40;;;17.10;99.90;;;;;;4919652;29;20388;-78
2021/09/10 04:44:11;;;;;;;0.90;0.40;;;17.00;99.90;;;;;;4918639;29;20438;-77
2021/09/10 04:46:39;;;;;;;0.90;0.50;;;17.10;99.90;;;;;;4916660;29;20418;-77
2021/09/10 04:49:07;;;;;;;0.90;0.50;;;17.10;99.90;;;;;;4900269;29;20441;-77
2021/09/10 04:51:35;;;;;;;0.90;0.40;;;17.20;99.90;;;;;;4917656;29;20472;-77
2021/09/10 04:54:05;;;;;;;0.90;0.40;;;17.20;99.90;;;;;;4918095;29;20408;-76
2021/09/10 04:56:33;;;;;;;0.90;0.40;;;17.20;99.90;;;;;;4918179;29;20499;-76
2021/09/10 04:59:03;;;;;;;0.90;0.40;;;17.30;99.90;;;;;;4901296;29;20437;-77
2021/09/10 05:01:32;;;;;;;0.90;0.40;;;17.30;99.90;;;;;;4918334;29;20856;-77
2021/09/10 05:04:01;;;;;;;0.90;0.50;;;17.30;99.90;;;;;;4918535;29;20444;-77
2021/09/10 05:06:29;;;;;;;0.90;0.50;;;17.50;99.90;;;;;;4900935;29;20423;-76
2021/09/10 05:08:57;;;;;;;0.90;0.40;;;17.90;99.90;;;;;;4933311;29;20455;-78
2021/09/10 05:11:27;;;;;;;0.90;0.40;;;18.20;99.90;;;;;;4921318;29;20422;-78
2021/09/10 05:13:55;;;;;;;0.90;0.40;;;18.20;99.90;;;;;;4920766;29;20435;-78
2021/09/10 05:16:23;;;;;;;0.90;0.40;;;18.10;99.90;;;;;;4903859;29;20950;-78
2021/09/10 05:18:51;;;;;;;0.90;0.40;;;18.10;99.90;;;;;;4924104;29;20396;-76
2021/09/10 05:21:19;;;;;;;0.90;0.40;;;18.10;99.90;;;;;;4921674;29;20503;-78
2021/09/10 05:23:47;;;;;;;0.90;0.40;;;18.10;99.90;;;;;;4903528;29;20920;-78
2021/09/10 05:26:16;;;;;;;0.90;0.40;;;18.10;99.90;;;;;;4904019;29;20773;-78
2021/09/10 05:28:45;;;;;;;0.90;0.40;;;18.20;99.90;;;;;;4921084;29;20833;-78
2021/09/10 05:31:14;;;;;;;0.90;0.40;;;18.20;99.90;;;;;;4904261;29;20443;-78
2021/09/10 05:33:43;;;;;;;0.90;0.40;;;18.20;99.90;;;;;;4930754;29;20433;-77
2021/09/10 05:36:11;;;;;;;0.90;0.40;;;18.40;99.90;;;;;;4944175;29;20416;-77
2021/09/10 05:38:39;;;;;;;0.90;0.40;;;18.50;99.90;;;;;;4920603;29;20520;-76
2021/09/10 05:41:07;;;;;;;0.90;0.40;;;18.50;99.90;;;;;;4902493;29;20473;-77
2021/09/10 05:43:35;;;;;;;0.90;0.40;;;18.70;99.90;;;;;;4920349;29;20465;-77
2021/09/10 05:46:05;;;;;;;0.90;0.50;;;18.80;99.90;;;;;;4924776;29;20406;-76
2021/09/10 05:48:33;;;;;;;0.90;0.40;;;18.80;99.90;;;;;;4922934;29;20469;-75
2021/09/10 05:51:01;;;;;;;0.90;0.40;;;19.00;99.90;;;;;;4938942;29;20437;-76
2021/09/10 05:53:29;;;;;;;0.90;0.40;;;19.10;99.90;;;;;;4922359;29;20456;-76
2021/09/10 05:55:58;;;;;;;0.90;0.50;;;19.20;99.90;;;;;;4931030;29;20881;-78
2021/09/10 05:58:26;;;;;;;0.90;0.40;;;19.20;99.90;;;;;;4906584;29;20482;-78
2021/09/10 06:00:54;;;;;;;0.90;0.40;;;19.30;99.90;;;;;;4907936;29;20432;-78
2021/09/10 06:03:24;;;;;;;0.90;0.40;;;19.40;99.90;;;;;;4908152;29;20478;-77
2021/09/10 06:05:52;;;;;;;0.90;0.40;;;19.50;99.90;;;;;;4939395;29;20420;-78
2021/09/10 06:08:20;;;;;;;0.90;0.40;;;19.60;99.90;;;;;;4941416;29;20472;-78
2021/09/10 06:10:48;;;;;;;0.90;0.40;;;19.70;99.90;;;;;;4928091;29;20471;-79
2021/09/10 06:13:18;;;;;;;0.90;0.40;;;19.70;99.90;;;;;;4925177;29;20490;-77
2021/09/10 06:15:46;;;;;;;0.90;0.40;;;19.90;99.90;;;;;;4903982;29;20440;-76
2021/09/10 06:18:15;;;;;;;0.90;0.40;;;20.00;99.90;;;;;;4918434;29;20425;-77
2021/09/10 06:20:44;;;;;;;0.90;0.40;;;20.10;99.90;;;;;;4917558;29;20449;-77
2021/09/10 06:23:12;;;;;;;0.90;0.50;;;20.20;99.90;;;;;;4917595;29;20442;-77
2021/09/10 06:25:41;;;;;;;0.90;0.40;;;20.30;99.90;;;;;;4918386;29;20421;-75
2021/09/10 06:28:09;;;;;;;0.90;0.40;;;20.40;99.90;;;;;;4918737;29;20428;-78
2021/09/10 06:30:37;;;;;;;0.90;0.40;;;20.40;99.90;;;;;;4919044;29;20466;-76
2021/09/10 06:33:06;;;;;;;0.90;0.40;;;20.50;99.90;;;;;;4918073;29;20432;-76
2021/09/10 06:35:34;;;;;;;0.90;0.40;;;20.60;99.90;;;;;;4917195;29;20569;-76
2021/09/10 06:38:04;;;;;;;0.90;0.40;;;20.80;99.90;;;;;;4917229;29;20397;-76
2021/09/10 06:40:32;;;;;;;0.90;0.40;;;20.90;99.90;;;;;;4917039;29;20473;-76
2021/09/10 06:43:00;;;;;;;0.90;0.40;;;21.10;99.80;;;;;;4917189;29;20430;-76
2021/09/10 06:45:29;;;;;;;0.90;0.40;;;21.10;99.90;;;;;;4917309;29;20498;-76
2021/09/10 06:47:57;;;;;;;0.90;0.40;;;21.30;99.20;;;;;;4900245;29;20469;-76
2021/09/10 06:50:25;;;;;;;0.90;0.40;;;21.50;97.40;;;;;;4916998;29;20424;-77
2021/09/10 06:52:53;;;;;;;0.90;0.40;;;21.60;96.50;;;;;;4917083;29;20438;-77
2021/09/10 06:55:23;;;;;;;0.90;0.50;;;21.60;96.20;;;;;;4899854;29;20579;-77
2021/09/10 06:57:51;;;;;;;0.90;0.40;;;21.70;96.30;;;;;;4916910;29;20396;-77
2021/09/10 07:00:19;;;;;;;0.90;0.40;;;21.80;95.60;;;;;;4916839;29;20846;-77
2021/09/10 07:02:47;;;;;;;0.90;0.40;;;21.90;94.30;;;;;;4917100;29;20763;-77
2021/09/10 07:05:15;;;;;;;0.90;0.40;;;21.90;93.90;;;;;;4916881;29;20402;-77
2021/09/10 07:07:43;;;;;;;0.90;0.40;;;22.00;92.30;;;;;;4917045;29;20430;-77
2021/09/10 07:10:12;;;;;;;0.90;0.40;;;22.10;91.60;;;;;;4879980;29;1086228;-78
2021/09/10 07:12:41;;;;;;;0.90;0.40;;;22.20;93.40;;;;;;4917731;29;20197;-76
2021/09/10 07:15:10;;;;;;;0.90;0.40;;;22.40;89.60;;;;;;4917737;29;20401;-77
2021/09/10 07:17:38;;;;;;;0.90;0.40;;;22.50;85.30;;;;;;4917685;29;20903;-77
2021/09/10 07:20:07;;;;;;;0.90;0.40;;;22.60;85.30;;;;;;4900477;29;20890;-78
2021/09/10 07:22:35;;;;;;;0.90;0.40;;;22.70;84.50;;;;;;4918264;29;20392;-78
2021/09/10 07:25:04;;;;;;;0.90;0.40;;;22.80;81.40;;;;;;4918034;29;20444;-77
2021/09/10 07:27:32;;;;;;;0.90;0.40;;;22.90;80.90;;;;;;4918925;29;20392;-76
2021/09/10 07:30:01;;;;;;;0.90;0.40;;;23.00;74.90;;;;;;4919334;29;20497;-77
2021/09/10 07:32:29;;;;;;;0.90;0.40;;;23.10;71.30;;;;;;4934464;29;20424;-78
2021/09/10 07:34:57;;;;;;;0.90;0.40;;;23.10;69.20;;;;;;4923870;29;20534;-80
2021/09/10 07:37:29;;;;;;;0.90;0.40;;;23.20;69.10;;;;;;4923912;29;20443;-79
2021/09/10 07:39:58;;;;;;;0.90;0.40;;;23.30;62.20;;;;;;4940626;29;20557;-78
2021/09/10 07:42:26;;;;;;;0.90;0.40;;;23.30;61.40;;;;;;4940323;29;20413;-78
2021/09/10 07:44:54;;;;;;;0.90;0.40;;;23.40;59.90;;;;;;4940526;29;20493;-78
2021/09/10 07:47:23;;;;;;;0.90;0.40;;;23.30;59.40;;;;;;4932744;29;20786;-76
2021/09/10 07:49:52;;;;;;;0.90;0.40;;;23.20;67.10;;;;;;4917669;29;20458;-76
2021/09/10 07:52:19;;;;;;;0.90;0.40;;;23.00;68.90;;;;;;4917233;29;20775;-76
2021/09/10 07:54:48;;;;;;;0.90;0.40;;;23.00;79.20;;;;;;4916919;29;20738;-76
2021/09/10 07:57:23;;;;;;;0.90;0.40;;;23.00;81.50;;;;;;4917155;29;20404;-77
2021/09/10 07:59:55;;;;;;;0.90;0.40;;;23.20;77.70;;;;;;4916846;29;20441;-76
2021/09/10 08:02:26;;;;;;;0.90;0.40;;;23.30;77.80;;;;;;4916964;29;20471;-76
2021/09/10 08:04:56;;;;;;;0.90;0.40;;;23.50;77.00;;;;;;4916544;29;20458;-76
2021/09/10 08:07:24;;;;;;;0.90;0.40;;;23.70;73.10;;;;;;4916729;29;20426;-75
2021/09/10 08:09:59;;;;;;;0.90;0.40;;;23.80;63.50;;;;;;4916381;29;20536;-77
2021/09/10 08:12:28;;;;;;;0.90;0.40;;;23.80;60.30;;;;;;4899639;29;20810;-76
2021/09/10 08:14:56;;;;;;;0.90;0.40;;;23.90;61.70;;;;;;4916574;29;20607;-77
2021/09/10 08:17:25;;;;;;;0.90;0.40;;;24.10;61.40;;;;;;4916418;29;20778;-76
2021/09/10 08:19:53;;;;;;;0.90;0.40;;;24.20;53.80;;;;;;4915991;29;20454;-76
2021/09/10 08:22:21;;;;;;;0.90;0.40;;;24.30;49.40;;;;;;4915097;29;20434;-77
2021/09/10 08:24:56;;;;;;;0.90;0.40;;;24.30;49.50;;;;;;4916170;29;20438;-76
2021/09/10 08:27:24;;;;;;;0.90;0.40;;;24.30;44.50;;;;;;4899280;29;20427;-76
2021/09/10 08:29:53;;;;;;;0.90;0.40;;;24.20;44.20;;;;;;4898955;29;20531;-77
2021/09/10 08:32:21;;;;;;;0.90;0.40;;;24.10;49.80;;;;;;4916306;29;20412;-78
2021/09/10 08:34:50;;;;;;;0.90;0.40;;;24.30;50.10;;;;;;4916138;29;20429;-77
2021/09/10 08:37:19;;;;;;;1.00;0.40;;;24.40;45.50;;;;;;4916301;29;20775;-76
2021/09/10 08:39:47;;;;;;;0.90;0.40;;;24.50;46.50;;;;;;4916387;29;20532;-76
2021/09/10 08:42:15;;;;;;;0.90;0.40;;;24.50;43.00;;;;;;4916015;29;20436;-76
2021/09/10 08:44:44;;;;;;;0.90;0.40;;;24.60;40.50;;;;;;4915731;29;20499;-77
2021/09/10 08:47:14;;;;;;;1.00;0.40;;;24.60;38.50;;;;;;4916043;29;20940;-76
2021/09/10 08:49:44;;;;;;;0.90;0.40;;;24.50;40.00;;;;;;4915867;29;20485;-76
2021/09/10 08:52:16;;;;;;;0.97;0.40;;;24.50;38.60;;;;;;4915761;29;20429;-76
2021/09/10 08:54:44;;;;;;;0.90;0.40;;;24.60;42.10;;;;;;4930132;29;20428;-77
2021/09/10 08:57:12;;;;;;;0.90;0.40;;;24.80;40.70;;;;;;4915634;29;21004;-76
2021/09/10 08:59:40;;;;;;;0.90;0.40;;;24.90;37.40;;;;;;4915664;29;20943;-77
2021/09/10 09:02:09;;;;;;;0.90;0.40;;;25.00;36.20;;;;;;4915947;29;20392;-76
2021/09/10 09:04:39;;;;;;;0.90;0.40;;;25.00;35.60;;;;;;4916005;29;20418;-77
2021/09/10 09:07:09;;;;;;;1.00;0.40;;;25.00;35.00;;;;;;4915832;29;20485;-77
2021/09/10 09:09:59;;;;;;;0.90;0.40;;;25.10;35.70;;;;;;4938453;23;20501;-77
2021/09/10 09:12:44;;;;;;;0.90;0.40;;;25.40;32.50;;;;;;4917511;29;20593;-78
2021/09/10 09:15:12;;;;;;;1.00;0.50;;;25.50;28.70;;;;;;4916150;29;20404;-77
2021/09/10 09:17:58;;;;;;;0.97;0.40;;;25.70;27.40;;;;;;4916587;29;20897;-77
2021/09/10 09:20:48;;;;;;;0.97;0.40;;;25.70;26.90;;;;;;4916335;29;20453;-77
2021/09/10 09:23:16;;;;;;;1.00;0.40;;;25.80;25.20;;;;;;4916261;29;20429;-76
2021/09/10 09:26:13;;;;;;;1.00;0.40;;;25.90;25.40;;;;;;4916131;29;20404;-76
2021/09/10 09:29:05;;;;;;;1.00;0.40;;;25.90;26.00;;;;;;4916430;29;20396;-77
2021/09/10 09:31:55;;;;;;;0.93;0.40;;;25.90;24.90;;;;;;4916371;29;20448;-77
2021/09/10 09:34:45;;;;;;;0.90;0.40;;;26.00;25.00;;;;;;4920009;29;20917;-77
2021/09/10 09:37:35;;;;;;;0.90;0.40;;;26.00;23.60;;;;;;4903591;29;20489;-76
2021/09/10 09:40:04;;;;;;;0.93;0.40;;;26.00;23.40;;;;;;4919942;29;20505;-77
2021/09/10 09:42:35;;;;;;;1.00;0.40;;;26.10;23.40;;;;;;4921394;29;20437;-76
2021/09/10 09:45:13;;;;;;;1.00;0.40;;;26.10;23.20;;;;;;4903412;29;20404;-76
2021/09/10 09:47:59;;;;;;;1.00;0.40;;;26.20;22.30;;;;;;4920935;29;20444;-78
2021/09/10 09:50:31;;;;;;;1.30;1.10;;;26.30;21.60;;;;;;4922446;29;20479;-77
2021/09/10 09:52:59;;;;;;;1.00;0.40;;;26.40;20.10;;;;;;4919879;29;20457;-77
2021/09/10 09:55:28;;;;;;;1.00;0.40;;;26.50;19.60;;;;;;4924267;29;20444;-78
2021/09/10 09:57:57;;;;;;;1.00;0.40;;;26.40;19.20;;;;;;4921085;29;20503;-77
2021/09/10 10:00:25;;;;;;;0.97;0.40;;;26.40;19.60;;;;;;4920024;29;20460;-78
2021/09/10 10:02:59;;;;;;;1.00;0.40;;;26.40;19.50;;;;;;4920595;29;20400;-77
2021/09/10 10:05:28;;;;;;;1.00;0.40;;;26.40;19.40;;;;;;4918829;29;20441;-77
2021/09/10 10:08:02;;;;;;;1.00;0.40;;;26.40;20.70;;;;;;4920243;29;20421;-78
2021/09/10 10:10:38;;;;;;;1.00;0.40;;;26.40;21.40;;;;;;4919036;29;20500;-78
2021/09/10 10:13:12;;;;;;;1.00;0.40;;;26.40;21.10;;;;;;4902866;29;20453;-76
2021/09/10 10:15:44;;;;;;;0.97;0.40;;;26.50;21.10;;;;;;4902097;29;20437;-77
2021/09/10 10:18:33;;;;;;;1.00;0.40;;;26.70;20.50;;;;;;4918938;29;20442;-77
2021/09/10 10:21:02;;;;;;;1.00;0.40;;;26.80;18.90;;;;;;4919860;29;20448;-79
2021/09/10 10:23:54;;;;;;;1.00;0.40;;;26.90;18.50;;;;;;4919509;29;20468;-78
2021/09/10 10:26:39;;;;;;;1.00;0.40;;;27.10;18.30;;;;;;4918980;29;20493;-78
2021/09/10 10:29:11;;;;;;;1.00;0.40;;;27.10;16.50;;;;;;4928952;29;20457;-77
2021/09/10 10:31:59;;;;;;;0.97;0.40;;;27.00;17.90;;;;;;4921095;29;20560;-78
2021/09/10 10:34:29;;;;;;;0.97;0.40;;;27.20;18.70;;;;;;4906013;29;20420;-76
2021/09/10 10:36:57;;;;;;;1.00;0.40;;;27.30;16.50;;;;;;4920074;29;20845;-77
2021/09/10 10:39:32;;;;;;;1.00;0.40;;;27.60;15.20;;;;;;4918781;29;20430;-77
2021/09/10 10:42:03;;;;;;;1.00;0.40;;;27.70;14.20;;;;;;4919223;29;20429;-78
2021/09/10 10:44:49;;;;;;;0.97;0.40;;;27.80;13.40;;;;;;4917629;29;20430;-77
2021/09/10 10:47:19;;;;;;;1.00;0.40;;;27.80;12.60;;;;;;4919690;29;20493;-79
2021/09/10 10:49:49;;;;;;;0.93;0.40;;;27.80;12.10;;;;;;4919352;29;20826;-78
2021/09/10 10:52:35;;;;;;;1.00;0.40;;;27.70;11.90;;;;;;4919120;29;20896;-77
2021/09/10 10:55:21;;;;;;;1.00;0.53;;;27.80;12.10;;;;;;4919937;29;20794;-78
2021/09/10 10:57:51;;;;;;;0.90;0.40;;;27.80;11.20;;;;;;4918853;29;20773;-78
2021/09/10 11:00:46;;;;;;;1.00;0.40;;;27.90;10.60;;;;;;4920601;29;20467;-78
2021/09/10 11:03:49;;;;;;;1.00;0.40;;;28.00;9.30;;;;;;4919872;29;20476;-77
2021/09/10 11:06:39;;;;;;;1.00;0.50;;;28.10;9.40;;;;;;4841274;29;20495;-77
2021/09/10 11:09:10;;;;;;;1.00;0.40;;;28.10;8.60;;;;;;4836636;29;20423;-77
2021/09/10 11:11:39;;;;;;;0.90;0.40;;;28.10;8.90;;;;;;4891633;29;20485;-77
2021/09/10 11:14:08;;;;;;;0.93;0.40;;;28.10;8.90;;;;;;4901714;29;20469;-76
2021/09/10 11:16:37;;;;;;;0.97;0.40;;;28.10;9.20;;;;;;4918019;29;20919;-76
2021/09/10 11:19:06;;;;;;;1.00;0.40;;;28.20;9.20;;;;;;4917822;29;20421;-76
2021/09/10 11:21:34;;;;;;;0.90;0.40;;;28.30;8.70;;;;;;4917592;29;20792;-77
2021/09/10 11:24:10;;;;;;;1.00;0.40;;;28.40;8.80;;;;;;4900691;29;20594;-77
2021/09/10 11:26:39;;;;;;;1.00;0.40;;;28.50;8.80;;;;;;4900984;29;20455;-77
2021/09/10 11:29:14;;;;;;;0.90;0.40;;;28.50;8.50;;;;;;4917607;29;20493;-77
2021/09/10 11:31:44;;;;;;;1.33;0.60;;;28.60;8.20;;;;;;4917531;29;20476;-77
2021/09/10 11:34:34;;;;;;;1.00;0.40;;;28.60;7.90;;;;;;4917960;29;20429;-77
2021/09/10 11:37:03;;;;;;;1.00;0.40;;;28.50;8.70;;;;;;4917932;29;20425;-78
2021/09/10 11:39:31;;;;;;;1.00;0.40;;;28.60;9.60;;;;;;4917888;29;20859;-78
2021/09/10 11:42:01;;;;;;;0.97;0.40;;;28.70;8.60;;;;;;4917713;29;20830;-77
2021/09/10 11:44:30;;;;;;;1.00;0.40;;;28.70;8.90;;;;;;4917588;29;20532;-77
2021/09/10 11:47:00;;;;;;;1.00;0.40;;;28.80;8.70;;;;;;4917441;29;20449;-77
2021/09/10 11:49:29;;;;;;;1.00;0.40;;;28.80;7.90;;;;;;4917182;29;20943;-77
2021/09/10 11:51:58;;;;;;;1.00;0.40;;;28.90;8.30;;;;;;4918183;29;20539;-77
2021/09/10 11:54:28;;;;;;;1.00;0.40;;;29.10;8.10;;;;;;4917459;29;20929;-78
2021/09/10 11:56:58;;;;;;;1.00;0.40;;;29.30;7.00;;;;;;4900222;29;20445;-77
2021/09/10 11:59:29;;;;;;;0.97;0.40;;;29.20;6.70;;;;;;4917412;29;20552;-77
2021/09/10 12:01:57;;;;;;;1.00;0.40;;;29.20;6.80;;;;;;4917833;29;20810;-79
2021/09/10 12:04:31;;;;;;;1.00;0.40;;;29.20;5.90;;;;;;4917511;29;20533;-77
2021/09/10 12:07:04;;;;;;;1.00;0.40;;;29.20;6.20;;;;;;4917316;29;20432;-78
2021/09/10 12:09:37;;;;;;;1.00;0.40;;;29.20;6.90;;;;;;4917240;29;20438;-77
2021/09/10 12:12:17;;;;;;;1.00;0.40;;;29.30;6.30;;;;;;4900929;29;21016;-79
2021/09/10 12:14:48;;;;;;;1.00;0.40;;;29.30;6.20;;;;;;4918106;29;20580;-77
2021/09/10 12:17:26;;;;;;;0.93;0.40;;;29.20;6.70;;;;;;4918377;29;20460;-75
2021/09/10 12:20:05;;;;;;;1.00;0.40;;;29.20;5.10;;;;;;4919290;29;20513;-78
2021/09/10 12:22:52;;;;;;;1.00;0.40;;;29.10;5.90;;;;;;4923244;29;20449;-77
2021/09/10 12:25:46;;;;;;;1.00;0.40;;;29.30;5.40;;;;;;4933467;29;20421;-78
2021/09/10 12:28:20;;;;;;;0.93;0.40;;;29.60;5.10;;;;;;4932260;29;20429;-76
2021/09/10 12:30:51;;;;;;;1.00;0.40;;;29.90;3.30;;;;;;4934258;29;20532;-78
2021/09/10 12:33:23;;;;;;;1.00;0.40;;;29.90;3.20;;;;;;4926432;29;20424;-77
2021/09/10 12:35:56;;;;;;;0.90;0.40;;;29.90;2.90;;;;;;4918032;29;20436;-77
2021/09/10 12:38:29;;;;;;;1.00;0.40;;;29.70;3.40;;;;;;4917643;29;20429;-78
2021/09/10 12:40:58;;;;;;;1.00;0.40;;;29.40;3.60;;;;;;4916635;29;20445;-78
2021/09/10 12:43:26;;;;;;;1.00;0.40;;;29.10;4.70;;;;;;4919227;29;20429;-79
2021/09/10 12:45:56;;;;;;;1.00;0.40;;;29.00;5.00;;;;;;4922323;29;20414;-77
2021/09/10 12:48:25;;;;;;;1.00;0.40;;;28.90;5.70;;;;;;4918478;29;20518;-78
2021/09/10 12:50:55;;;;;;;1.00;0.40;;;28.90;5.90;;;;;;4920395;29;20498;-79
2021/09/10 12:53:25;;;;;;;0.90;0.40;;;29.00;5.00;;;;;;4903135;29;20430;-78
2021/09/10 12:55:55;;;;;;;1.00;0.40;;;29.10;5.10;;;;;;4922562;29;20437;-77
2021/09/10 12:58:25;;;;;;;0.93;0.40;;;29.10;5.30;;;;;;4919812;29;20421;-77
2021/09/10 13:00:53;;;;;;;1.00;0.40;;;29.20;5.30;;;;;;4916647;29;20481;-77
2021/09/10 13:03:25;;;;;;;1.00;0.40;;;29.60;4.70;;;;;;4917005;29;20472;-78
2021/09/10 13:05:56;;;;;;;0.97;0.40;;;29.70;2.90;;;;;;4918137;29;20525;-78